Weather at Governador Jorge Teixeira de Oliveira Airport

Public forecast

Using degrees Celsius for public forecast. Weather courtesy of forecast.io.

Current aviation weather report (METAR) for Governador Jorge Teixeira de Oliveira Airport

Retrieved 2021/08/05 15:00 UTC (23 minutes ago):

SBPV 051500Z 14008KT CAVOK 32/14 Q1017

Aviation forecast (TAF) for Governador Jorge Teixeira de Oliveira Airport

Retrieved 2021/08/05 12:00 UTC (3 hours ago):

TAF SBPV 050900Z 0512/0612 21005KT 7000 NSC TX35/0519Z TN20/0610Z BECMG 0513/0515 15010KT CAVOK BECMG 0518/0520 SCT040 BECMG 0521/0523 20005KT CAVOK BECMG 0603/0606 7000 NSC PROB40 0606/0611 5000 FU RMK PHN